createdAt,value
2022-11-08T00:02:46.780Z,3.92
2022-11-08T00:07:07.001Z,3.35
2022-11-08T00:11:27.557Z,3.88
2022-11-08T00:15:29.453Z,3.95
2022-11-08T00:19:31.093Z,3.63
2022-11-08T00:23:32.718Z,3.30
2022-11-08T00:27:34.608Z,4.07
2022-11-08T00:31:36.270Z,3.55
2022-11-08T00:35:37.873Z,4.00
2022-11-08T00:39:39.541Z,3.33
2022-11-08T00:43:41.225Z,3.67
2022-11-08T00:47:42.783Z,3.72
2022-11-08T00:51:44.380Z,3.55
2022-11-08T00:55:46.013Z,3.67
2022-11-08T00:59:47.617Z,3.60
2022-11-08T01:03:49.741Z,3.50
2022-11-08T01:07:51.315Z,3.85
2022-11-08T01:11:52.925Z,3.58
2022-11-08T01:15:54.633Z,3.55
2022-11-08T01:19:56.400Z,3.67
2022-11-08T01:23:58.087Z,4.05
2022-11-08T01:27:59.656Z,4.03
2022-11-08T01:32:01.245Z,3.97
2022-11-08T01:36:03.215Z,3.38
2022-11-08T01:40:05.657Z,3.95
2022-11-08T01:44:16.128Z,3.67
2022-11-08T01:48:18.015Z,3.67
2022-11-08T01:52:43.575Z,3.55
2022-11-08T01:56:45.429Z,4.13
2022-11-08T02:00:47.195Z,3.60
2022-11-08T02:04:49.037Z,3.65
2022-11-08T02:08:50.748Z,3.83
2022-11-08T02:12:54.809Z,3.22
2022-11-08T02:16:56.465Z,3.08
2022-11-08T02:21:22.448Z,3.58
2022-11-08T02:25:24.101Z,3.38
2022-11-08T02:29:45.919Z,3.45
2022-11-08T02:33:48.554Z,3.58
2022-11-08T02:37:50.590Z,3.60
2022-11-08T02:41:52.456Z,3.22
2022-11-08T02:45:54.062Z,3.47
2022-11-08T02:49:55.657Z,3.33
2022-11-08T02:53:57.284Z,3.35
2022-11-08T02:57:58.885Z,3.45
2022-11-08T03:02:00.773Z,3.15
2022-11-08T03:06:02.561Z,3.58
2022-11-08T03:10:04.518Z,3.50
2022-11-08T03:14:06.214Z,3.72
2022-11-08T03:18:07.833Z,3.13
2022-11-08T03:22:09.530Z,3.50
2022-11-08T03:26:11.246Z,3.08
2022-11-08T03:30:12.910Z,3.40
2022-11-08T03:34:14.597Z,3.28
2022-11-08T03:38:17.264Z,3.30
2022-11-08T03:42:19.055Z,3.30
2022-11-08T03:46:20.681Z,3.08
2022-11-08T03:50:22.476Z,4.32
2022-11-08T03:54:24.039Z,3.40
2022-11-08T03:58:25.683Z,3.20
2022-11-08T04:02:27.406Z,3.10
2022-11-08T04:06:29.106Z,3.05
2022-11-08T04:10:30.748Z,3.60
2022-11-08T04:14:51.147Z,3.50
2022-11-08T04:19:11.520Z,3.17
2022-11-08T04:23:13.498Z,3.38
2022-11-08T04:27:15.144Z,2.97
2022-11-08T04:31:19.440Z,3.00
2022-11-08T04:35:21.211Z,3.10
2022-11-08T04:39:22.790Z,3.30
2022-11-08T04:43:24.396Z,3.35
2022-11-08T04:47:27.280Z,3.30
2022-11-08T04:51:33.642Z,4.28
2022-11-08T04:55:37.024Z,3.33
2022-11-08T04:59:39.326Z,3.15
2022-11-08T05:03:41.291Z,2.85
2022-11-08T05:07:42.907Z,3.08
2022-11-08T05:11:44.489Z,2.90
2022-11-08T05:15:46.094Z,2.58
2022-11-08T05:20:06.300Z,3.35
2022-11-08T05:24:10.358Z,3.30
2022-11-08T05:28:12.933Z,2.85
2022-11-08T05:32:14.517Z,3.10
2022-11-08T05:36:16.537Z,3.17
2022-11-08T05:40:18.171Z,2.85
2022-11-08T05:44:19.782Z,2.83
2022-11-08T05:48:21.390Z,3.17
2022-11-08T05:52:23.001Z,2.90
2022-11-08T05:56:24.585Z,3.38
2022-11-08T06:00:26.218Z,2.58
2022-11-08T06:04:27.797Z,2.75
2022-11-08T06:08:29.449Z,2.70
2022-11-08T06:12:31.265Z,2.90
2022-11-08T06:16:32.846Z,2.83
2022-11-08T06:20:34.440Z,2.92
2022-11-08T06:24:36.400Z,2.58
2022-11-08T06:28:38.063Z,2.45
2022-11-08T06:32:40.087Z,2.78
2022-11-08T06:36:41.931Z,2.80
2022-11-08T06:40:44.875Z,2.50
2022-11-08T06:44:46.460Z,2.60
2022-11-08T06:48:48.090Z,2.50
2022-11-08T06:53:00.315Z,2.67
2022-11-08T06:57:02.229Z,2.85
2022-11-08T07:01:09.700Z,2.88
2022-11-08T07:05:12.433Z,2.72
2022-11-08T07:09:14.117Z,2.58
2022-11-08T07:13:15.949Z,2.88
2022-11-08T07:17:17.792Z,2.80
2022-11-08T07:21:19.563Z,2.55
2022-11-08T07:25:21.521Z,3.03
2022-11-08T07:29:23.131Z,2.60
2022-11-08T07:33:24.738Z,3.03
2022-11-08T07:37:26.315Z,2.42
2022-11-08T07:41:27.974Z,2.72
2022-11-08T07:45:29.603Z,2.50
2022-11-08T07:49:31.238Z,2.67
2022-11-08T07:53:32.900Z,2.22
2022-11-08T07:57:34.468Z,2.60
2022-11-08T08:01:36.224Z,2.45
2022-11-08T08:05:40.734Z,2.63
2022-11-08T08:09:42.370Z,2.67
2022-11-08T08:13:43.956Z,2.78
2022-11-08T08:17:45.592Z,3.00
2022-11-08T08:21:47.189Z,2.60
2022-11-08T08:25:48.853Z,2.70
2022-11-08T08:29:50.459Z,2.90
2022-11-08T08:33:52.145Z,3.03
2022-11-08T08:37:58.206Z,2.90
2022-11-08T08:46:03.325Z,2.58
2022-11-08T08:50:05.425Z,2.10
2022-11-08T08:54:07.021Z,2.88
2022-11-08T08:58:10.752Z,2.20
2022-11-08T09:02:12.482Z,1.90
2022-11-08T09:06:14.369Z,2.30
2022-11-08T09:10:16.167Z,2.38
2022-11-08T09:14:17.807Z,2.33
2022-11-08T09:18:19.885Z,2.35
2022-11-08T09:22:21.809Z,2.25
2022-11-08T09:26:23.433Z,2.13
2022-11-08T09:30:26.304Z,2.15
2022-11-08T09:34:28.340Z,2.85
2022-11-08T09:38:30.229Z,2.40
2022-11-08T09:42:54.076Z,2.25
2022-11-08T09:46:57.081Z,2.25
2022-11-08T09:51:05.568Z,2.50
2022-11-08T09:55:13.085Z,2.05
2022-11-08T09:59:30.144Z,2.70
2022-11-08T10:03:31.820Z,2.28
2022-11-08T10:07:46.529Z,2.25
2022-11-08T10:12:15.457Z,1.88
2022-11-08T10:16:37.921Z,2.60
2022-11-08T10:20:54.380Z,2.35
2022-11-08T10:29:13.990Z,1.98
2022-11-08T10:33:24.800Z,2.30
2022-11-08T10:37:27.365Z,1.67
2022-11-08T10:42:05.999Z,2.00
2022-11-08T10:46:31.342Z,1.73
2022-11-08T10:50:45.417Z,2.00
2022-11-08T10:54:58.226Z,1.80
2022-11-08T10:58:59.846Z,1.80
2022-11-08T11:03:11.536Z,1.67
2022-11-08T11:07:25.569Z,1.52
2022-11-08T11:11:36.546Z,1.35
2022-11-08T11:15:51.080Z,1.98
2022-11-08T11:19:57.294Z,2.00
2022-11-08T11:28:14.064Z,1.70
2022-11-08T11:32:33.653Z,2.20
2022-11-08T11:36:35.617Z,2.00
2022-11-08T11:40:37.384Z,2.25
2022-11-08T11:45:02.445Z,1.70
2022-11-08T11:49:13.145Z,1.55
2022-11-08T11:53:32.940Z,1.80
2022-11-08T11:58:02.119Z,1.85
2022-11-08T12:02:18.976Z,1.52
2022-11-08T12:06:47.800Z,1.85
2022-11-08T12:11:06.408Z,1.60
2022-11-08T12:15:23.933Z,1.75
2022-11-08T12:19:34.253Z,1.95
2022-11-08T12:23:54.406Z,1.55
2022-11-08T12:28:36.409Z,2.00
2022-11-08T12:33:12.858Z,2.22
2022-11-08T12:38:10.904Z,3.63
2022-11-08T12:42:34.692Z,2.53
2022-11-08T12:47:00.950Z,2.35
2022-11-08T12:51:08.546Z,3.28
2022-11-08T12:55:22.490Z,3.28
2022-11-08T12:59:39.731Z,3.08
2022-11-08T13:03:47.697Z,3.65
2022-11-08T13:08:01.538Z,3.20
2022-11-08T13:12:28.505Z,3.20
2022-11-08T13:16:39.082Z,3.70
2022-11-08T13:20:46.241Z,3.40
2022-11-08T13:24:47.877Z,3.25
2022-11-08T13:28:50.656Z,3.83
2022-11-08T13:33:06.775Z,3.45
2022-11-08T13:37:33.330Z,3.30
2022-11-08T13:42:02.864Z,3.58
2022-11-08T13:46:27.915Z,3.17
2022-11-08T13:50:37.646Z,3.85
2022-11-08T13:54:50.718Z,2.75
2022-11-08T13:58:52.517Z,2.97
2022-11-08T14:02:54.118Z,3.30
2022-11-08T14:07:13.824Z,3.40
2022-11-08T14:11:42.130Z,2.72
2022-11-08T14:15:54.620Z,3.45
2022-11-08T14:20:06.910Z,3.70
2022-11-08T14:24:16.996Z,2.95
2022-11-08T14:28:45.817Z,2.88
2022-11-08T14:32:48.950Z,2.28
2022-11-08T14:36:54.963Z,2.65
2022-11-08T14:41:03.511Z,2.72
2022-11-08T14:45:12.726Z,2.65
2022-11-08T14:49:15.499Z,2.42
2022-11-08T14:53:28.921Z,3.05
2022-11-08T14:57:38.294Z,2.45
2022-11-08T15:01:43.597Z,2.67
2022-11-08T15:05:54.017Z,2.67
2022-11-08T15:09:55.823Z,2.40
2022-11-08T15:14:04.132Z,2.60
2022-11-08T15:18:13.401Z,2.83
2022-11-08T15:22:31.407Z,2.38
2022-11-08T15:26:35.664Z,2.38
2022-11-08T15:30:38.930Z,1.90
2022-11-08T15:34:41.928Z,1.65
2022-11-08T15:38:49.080Z,1.92
2022-11-08T15:42:51.880Z,2.10
2022-11-08T15:46:54.907Z,2.35
2022-11-08T15:50:59.693Z,2.58
2022-11-08T15:55:01.286Z,1.90
2022-11-08T15:59:02.990Z,2.33
2022-11-08T16:03:04.816Z,2.70
2022-11-08T16:07:06.546Z,1.65
2022-11-08T16:11:19.460Z,3.10
2022-11-08T16:15:26.986Z,1.88
2022-11-08T16:19:28.684Z,2.15
2022-11-08T16:23:30.300Z,1.98
2022-11-08T16:27:31.952Z,1.67
2022-11-08T16:31:33.548Z,1.77
2022-11-08T16:35:35.241Z,1.73
2022-11-08T16:39:36.872Z,2.13
2022-11-08T16:43:38.445Z,2.15
2022-11-08T16:47:45.308Z,1.95
2022-11-08T16:51:47.564Z,1.98
2022-11-08T16:55:49.174Z,1.88
2022-11-08T16:59:51.480Z,2.63
2022-11-08T17:03:53.147Z,1.80
2022-11-08T17:07:55.852Z,1.80
2022-11-08T17:11:57.601Z,2.17
2022-11-08T17:15:59.209Z,2.00
2022-11-08T17:20:00.801Z,1.90
2022-11-08T17:24:02.427Z,1.90
2022-11-08T17:28:04.378Z,1.65
2022-11-08T17:32:05.981Z,1.70
2022-11-08T17:36:09.770Z,2.03
2022-11-08T17:40:11.787Z,1.58
2022-11-08T17:44:14.255Z,1.55
2022-11-08T17:48:15.820Z,1.50
2022-11-08T17:52:17.669Z,1.67
2022-11-08T17:56:19.638Z,1.70
2022-11-08T18:00:21.279Z,1.80
2022-11-08T18:04:22.856Z,1.88
2022-11-08T18:08:27.278Z,1.70
2022-11-08T18:12:28.957Z,1.95
2022-11-08T18:16:31.813Z,1.58
2022-11-08T18:20:33.450Z,1.65
2022-11-08T18:24:46.018Z,1.60
2022-11-08T18:28:50.693Z,1.47
2022-11-08T18:32:52.259Z,1.50
2022-11-08T18:36:54.210Z,1.80
2022-11-08T18:40:55.851Z,1.75
2022-11-08T18:44:57.478Z,2.17
2022-11-08T18:48:59.117Z,3.72
2022-11-08T18:53:03.704Z,6.78
2022-11-08T18:57:05.843Z,9.35
2022-11-08T19:01:07.773Z,11.63
2022-11-08T19:05:09.500Z,13.35
2022-11-08T19:09:11.435Z,15.25
2022-11-08T19:13:13.010Z,14.57
2022-11-08T19:17:16.195Z,18.48
2022-11-08T19:21:20.835Z,20.23
2022-11-08T19:25:22.628Z,24.35
2022-11-08T19:29:24.289Z,23.05
2022-11-08T19:33:27.243Z,31.52
2022-11-08T19:37:28.822Z,31.02
2022-11-08T19:41:30.501Z,32.03
2022-11-08T19:45:32.377Z,31.55
2022-11-08T19:49:36.225Z,31.58
2022-11-08T19:53:37.811Z,31.63
2022-11-08T19:57:39.410Z,30.85
2022-11-08T20:01:41.232Z,31.73
2022-11-08T20:05:42.860Z,31.17
2022-11-08T20:09:44.495Z,31.23
2022-11-08T20:13:46.683Z,33.58
2022-11-08T20:17:48.452Z,34.65
2022-11-08T20:21:50.247Z,34.00
2022-11-08T20:25:51.825Z,34.47
2022-11-08T20:29:53.506Z,35.50
2022-11-08T20:33:55.334Z,36.72
2022-11-08T20:37:57.252Z,38.22
2022-11-08T20:41:59.897Z,35.67
2022-11-08T20:46:06.601Z,37.38
2022-11-08T20:50:09.791Z,36.63
2022-11-08T20:54:11.934Z,36.90
2022-11-08T20:58:13.522Z,37.63
2022-11-08T21:02:15.330Z,36.28
2022-11-08T21:06:20.147Z,37.67
2022-11-08T21:10:42.119Z,38.00
2022-11-08T21:14:43.281Z,39.35
2022-11-08T21:18:44.868Z,37.88
2022-11-08T21:22:46.682Z,38.22
2022-11-08T21:26:48.255Z,38.20
2022-11-08T21:30:49.899Z,38.95
2022-11-08T21:34:51.467Z,38.92
2022-11-08T21:38:54.124Z,38.03
2022-11-08T21:42:55.717Z,40.22
2022-11-08T21:46:57.278Z,40.38
2022-11-08T21:51:04.974Z,40.10
2022-11-08T21:55:06.795Z,40.60
2022-11-08T21:59:08.362Z,40.40
2022-11-08T22:03:11.290Z,39.38
2022-11-08T22:07:12.910Z,38.63
2022-11-08T22:11:14.603Z,42.40
2022-11-08T22:15:16.216Z,39.40
2022-11-08T22:19:17.816Z,39.15
2022-11-08T22:23:19.404Z,39.22
2022-11-08T22:27:20.974Z,40.70
2022-11-08T22:31:22.777Z,39.83
2022-11-08T22:35:24.369Z,38.42
2022-11-08T22:39:26.256Z,37.67
2022-11-08T22:43:27.872Z,36.13
2022-11-08T22:47:29.424Z,37.47
2022-11-08T22:51:31.040Z,36.67
2022-11-08T22:55:32.678Z,35.67
2022-11-08T22:59:34.257Z,37.20
2022-11-08T23:03:35.817Z,35.97
2022-11-08T23:07:37.378Z,35.22
2022-11-08T23:11:57.518Z,36.97
2022-11-08T23:16:17.893Z,35.15
2022-11-08T23:20:38.245Z,35.22
2022-11-08T23:24:40.928Z,33.58
2022-11-08T23:29:01.009Z,34.70
2022-11-08T23:33:04.850Z,32.38
2022-11-08T23:37:06.423Z,31.60
2022-11-08T23:41:27.678Z,32.83
2022-11-08T23:45:29.294Z,30.83
2022-11-08T23:49:30.867Z,31.65
2022-11-08T23:53:34.392Z,31.73
2022-11-08T23:57:36.005Z,30.75
